sensor_id;sensor_type;location;lat;lon;timestamp;pressure;altitude;pressure_sealevel;temperature;humidity
10474;BME280;5284;50.446;7.904;2024-02-23T00:03:23;95915.38;;;6.55;100.00
10474;BME280;5284;50.446;7.904;2024-02-23T00:08:26;95916.53;;;6.44;100.00
10474;BME280;5284;50.446;7.904;2024-02-23T00:13:29;95945.81;;;6.43;100.00
10474;BME280;5284;50.446;7.904;2024-02-23T00:18:35;95952.63;;;6.37;100.00
10474;BME280;5284;50.446;7.904;2024-02-23T00:23:38;95970.84;;;6.32;100.00
10474;BME280;5284;50.446;7.904;2024-02-23T00:28:42;95987.84;;;6.30;100.00
10474;BME280;5284;50.446;7.904;2024-02-23T00:33:46;95994.97;;;6.21;100.00
10474;BME280;5284;50.446;7.904;2024-02-23T00:38:49;95994.16;;;6.21;100.00
10474;BME280;5284;50.446;7.904;2024-02-23T00:43:52;96021.59;;;6.12;100.00
10474;BME280;5284;50.446;7.904;2024-02-23T00:48:57;96030.53;;;6.03;100.00
10474;BME280;5284;50.446;7.904;2024-02-23T00:54:00;96031.19;;;5.89;100.00
10474;BME280;5284;50.446;7.904;2024-02-23T00:59:03;96048.47;;;5.76;100.00
10474;BME280;5284;50.446;7.904;2024-02-23T01:04:07;96058.72;;;5.71;100.00
10474;BME280;5284;50.446;7.904;2024-02-23T01:09:10;96074.84;;;5.60;100.00
10474;BME280;5284;50.446;7.904;2024-02-23T01:14:14;96090.19;;;5.48;100.00
10474;BME280;5284;50.446;7.904;2024-02-23T01:19:18;96111.94;;;5.42;100.00
10474;BME280;5284;50.446;7.904;2024-02-23T01:24:21;96124.00;;;5.37;100.00
10474;BME280;5284;50.446;7.904;2024-02-23T01:29:26;96157.78;;;5.25;100.00
10474;BME280;5284;50.446;7.904;2024-02-23T01:34:32;96155.66;;;5.03;100.00
10474;BME280;5284;50.446;7.904;2024-02-23T01:39:35;96160.13;;;4.77;100.00
10474;BME280;5284;50.446;7.904;2024-02-23T01:44:38;96147.31;;;4.65;100.00
10474;BME280;5284;50.446;7.904;2024-02-23T01:49:43;96156.00;;;4.57;100.00
10474;BME280;5284;50.446;7.904;2024-02-23T01:54:48;96165.19;;;4.53;100.00
10474;BME280;5284;50.446;7.904;2024-02-23T01:59:51;96176.50;;;4.46;100.00
10474;BME280;5284;50.446;7.904;2024-02-23T02:04:58;96173.19;;;4.44;100.00
10474;BME280;5284;50.446;7.904;2024-02-23T02:10:02;96175.28;;;4.41;100.00
10474;BME280;5284;50.446;7.904;2024-02-23T02:15:06;96183.50;;;4.38;100.00
10474;BME280;5284;50.446;7.904;2024-02-23T02:20:13;96180.56;;;4.41;100.00
10474;BME280;5284;50.446;7.904;2024-02-23T02:25:16;96192.09;;;4.40;100.00
10474;BME280;5284;50.446;7.904;2024-02-23T02:30:19;96191.41;;;4.38;100.00
10474;BME280;5284;50.446;7.904;2024-02-23T02:35:24;96182.00;;;4.35;100.00
10474;BME280;5284;50.446;7.904;2024-02-23T02:40:28;96184.03;;;4.41;100.00
10474;BME280;5284;50.446;7.904;2024-02-23T02:45:31;96183.06;;;4.42;100.00
10474;BME280;5284;50.446;7.904;2024-02-23T02:50:35;96193.16;;;4.47;100.00
10474;BME280;5284;50.446;7.904;2024-02-23T02:55:41;96198.16;;;4.49;100.00
10474;BME280;5284;50.446;7.904;2024-02-23T03:00:45;96204.53;;;4.47;100.00
10474;BME280;5284;50.446;7.904;2024-02-23T03:05:49;96203.03;;;4.45;100.00
10474;BME280;5284;50.446;7.904;2024-02-23T03:10:53;96211.34;;;4.49;100.00
10474;BME280;5284;50.446;7.904;2024-02-23T03:15:57;96218.41;;;4.49;100.00
10474;BME280;5284;50.446;7.904;2024-02-23T03:21:01;96218.19;;;4.43;100.00
10474;BME280;5284;50.446;7.904;2024-02-23T03:26:06;96227.22;;;4.40;100.00
10474;BME280;5284;50.446;7.904;2024-02-23T03:31:11;96239.75;;;4.38;100.00
10474;BME280;5284;50.446;7.904;2024-02-23T03:36:15;96240.03;;;4.35;100.00
10474;BME280;5284;50.446;7.904;2024-02-23T03:41:18;96248.25;;;4.32;100.00
10474;BME280;5284;50.446;7.904;2024-02-23T03:46:22;96242.00;;;4.33;100.00
10474;BME280;5284;50.446;7.904;2024-02-23T03:51:26;96243.97;;;4.31;100.00
10474;BME280;5284;50.446;7.904;2024-02-23T03:56:29;96241.06;;;4.25;100.00
10474;BME280;5284;50.446;7.904;2024-02-23T04:01:32;96245.66;;;4.23;100.00
10474;BME280;5284;50.446;7.904;2024-02-23T04:06:37;96266.47;;;4.26;100.00
10474;BME280;5284;50.446;7.904;2024-02-23T04:11:40;96262.84;;;4.27;100.00
10474;BME280;5284;50.446;7.904;2024-02-23T04:16:43;96261.44;;;4.32;100.00
10474;BME280;5284;50.446;7.904;2024-02-23T04:21:47;96271.44;;;4.29;100.00
10474;BME280;5284;50.446;7.904;2024-02-23T04:26:50;96274.94;;;4.29;100.00
10474;BME280;5284;50.446;7.904;2024-02-23T04:31:53;96275.44;;;4.33;100.00
10474;BME280;5284;50.446;7.904;2024-02-23T04:36:58;96272.38;;;4.37;100.00
10474;BME280;5284;50.446;7.904;2024-02-23T04:42:03;96287.91;;;4.40;100.00
10474;BME280;5284;50.446;7.904;2024-02-23T04:47:06;96288.28;;;4.45;100.00
10474;BME280;5284;50.446;7.904;2024-02-23T04:52:10;96296.38;;;4.44;100.00
10474;BME280;5284;50.446;7.904;2024-02-23T04:57:13;96294.72;;;4.43;100.00
10474;BME280;5284;50.446;7.904;2024-02-23T05:02:16;96296.19;;;4.45;100.00
10474;BME280;5284;50.446;7.904;2024-02-23T05:07:21;96292.16;;;4.50;100.00
10474;BME280;5284;50.446;7.904;2024-02-23T05:12:25;96306.31;;;4.49;100.00
10474;BME280;5284;50.446;7.904;2024-02-23T05:17:28;96310.31;;;4.53;100.00
10474;BME280;5284;50.446;7.904;2024-02-23T05:22:33;96311.97;;;4.54;100.00
10474;BME280;5284;50.446;7.904;2024-02-23T05:27:36;96308.19;;;4.57;100.00
10474;BME280;5284;50.446;7.904;2024-02-23T05:32:40;96311.06;;;4.63;100.00
10474;BME280;5284;50.446;7.904;2024-02-23T05:37:44;96300.38;;;4.65;100.00
10474;BME280;5284;50.446;7.904;2024-02-23T05:42:47;96287.69;;;4.68;100.00
10474;BME280;5284;50.446;7.904;2024-02-23T05:47:50;96294.81;;;4.68;100.00
10474;BME280;5284;50.446;7.904;2024-02-23T05:52:55;96279.94;;;4.67;100.00
10474;BME280;5284;50.446;7.904;2024-02-23T05:57:58;96282.44;;;4.68;100.00
10474;BME280;5284;50.446;7.904;2024-02-23T06:03:01;96281.59;;;4.68;100.00
10474;BME280;5284;50.446;7.904;2024-02-23T06:08:06;96274.19;;;4.71;100.00
10474;BME280;5284;50.446;7.904;2024-02-23T06:13:09;96281.97;;;4.73;100.00
10474;BME280;5284;50.446;7.904;2024-02-23T06:18:12;96291.69;;;4.72;100.00
10474;BME280;5284;50.446;7.904;2024-02-23T06:23:17;96297.66;;;4.74;100.00
10474;BME280;5284;50.446;7.904;2024-02-23T06:28:20;96310.03;;;4.74;100.00
10474;BME280;5284;50.446;7.904;2024-02-23T06:33:23;96309.81;;;4.67;100.00
10474;BME280;5284;50.446;7.904;2024-02-23T06:38:28;96304.81;;;4.64;100.00
10474;BME280;5284;50.446;7.904;2024-02-23T06:43:31;96298.13;;;4.70;100.00
10474;BME280;5284;50.446;7.904;2024-02-23T06:48:34;96297.59;;;4.66;100.00
10474;BME280;5284;50.446;7.904;2024-02-23T06:53:40;96310.19;;;4.72;100.00
10474;BME280;5284;50.446;7.904;2024-02-23T06:58:44;96308.38;;;4.73;100.00
10474;BME280;5284;50.446;7.904;2024-02-23T07:03:47;96323.69;;;4.69;100.00
10474;BME280;5284;50.446;7.904;2024-02-23T07:08:54;96332.28;;;4.71;100.00
10474;BME280;5284;50.446;7.904;2024-02-23T07:13:57;96339.88;;;4.74;100.00
10474;BME280;5284;50.446;7.904;2024-02-23T07:19:01;96346.69;;;4.77;100.00
10474;BME280;5284;50.446;7.904;2024-02-23T07:24:06;96361.94;;;4.83;100.00
10474;BME280;5284;50.446;7.904;2024-02-23T07:29:12;96368.28;;;4.90;100.00
10474;BME280;5284;50.446;7.904;2024-02-23T07:34:19;96373.66;;;4.98;100.00
10474;BME280;5284;50.446;7.904;2024-02-23T07:39:24;96380.69;;;5.07;100.00
10474;BME280;5284;50.446;7.904;2024-02-23T07:44:28;96379.09;;;5.14;100.00
10474;BME280;5284;50.446;7.904;2024-02-23T07:49:31;96378.47;;;5.20;100.00
10474;BME280;5284;50.446;7.904;2024-02-23T07:54:37;96374.47;;;5.16;100.00
10474;BME280;5284;50.446;7.904;2024-02-23T07:59:40;96386.34;;;5.12;100.00
10474;BME280;5284;50.446;7.904;2024-02-23T08:04:43;96389.66;;;5.14;100.00
10474;BME280;5284;50.446;7.904;2024-02-23T08:09:48;96394.25;;;5.12;100.00
10474;BME280;5284;50.446;7.904;2024-02-23T08:14:51;96390.88;;;5.19;100.00
10474;BME280;5284;50.446;7.904;2024-02-23T08:19:55;96397.75;;;5.30;100.00
10474;BME280;5284;50.446;7.904;2024-02-23T08:25:00;96396.38;;;5.43;100.00
10474;BME280;5284;50.446;7.904;2024-02-23T08:30:05;96404.09;;;5.54;100.00
10474;BME280;5284;50.446;7.904;2024-02-23T08:35:09;96398.72;;;5.64;100.00
10474;BME280;5284;50.446;7.904;2024-02-23T08:40:14;96398.91;;;5.70;100.00
10474;BME280;5284;50.446;7.904;2024-02-23T08:45:18;96396.75;;;5.66;100.00
10474;BME280;5284;50.446;7.904;2024-02-23T08:50:21;96396.81;;;5.74;100.00
10474;BME280;5284;50.446;7.904;2024-02-23T08:55:25;96400.88;;;5.68;100.00
10474;BME280;5284;50.446;7.904;2024-02-23T09:00:29;96403.38;;;5.70;100.00
10474;BME280;5284;50.446;7.904;2024-02-23T09:05:33;96405.25;;;5.60;100.00
10474;BME280;5284;50.446;7.904;2024-02-23T09:10:37;96404.59;;;5.58;100.00
10474;BME280;5284;50.446;7.904;2024-02-23T09:15:40;96420.16;;;5.78;100.00
10474;BME280;5284;50.446;7.904;2024-02-23T09:20:44;96424.22;;;5.73;100.00
10474;BME280;5284;50.446;7.904;2024-02-23T09:25:49;96417.66;;;5.77;100.00
10474;BME280;5284;50.446;7.904;2024-02-23T09:30:53;96405.13;;;5.79;100.00
10474;BME280;5284;50.446;7.904;2024-02-23T09:35:59;96396.44;;;6.11;100.00
10474;BME280;5284;50.446;7.904;2024-02-23T09:41:04;96396.38;;;6.29;100.00
10474;BME280;5284;50.446;7.904;2024-02-23T09:46:08;96412.47;;;6.35;100.00
10474;BME280;5284;50.446;7.904;2024-02-23T09:51:14;96407.97;;;6.28;100.00
10474;BME280;5284;50.446;7.904;2024-02-23T09:56:21;96403.66;;;6.27;100.00
10474;BME280;5284;50.446;7.904;2024-02-23T10:01:28;96410.22;;;6.15;100.00
10474;BME280;5284;50.446;7.904;2024-02-23T10:06:33;96406.19;;;6.11;100.00
10474;BME280;5284;50.446;7.904;2024-02-23T10:11:38;96401.84;;;6.02;100.00
10474;BME280;5284;50.446;7.904;2024-02-23T10:16:41;96407.13;;;6.02;100.00
10474;BME280;5284;50.446;7.904;2024-02-23T10:21:45;96402.31;;;6.23;100.00
10474;BME280;5284;50.446;7.904;2024-02-23T10:26:49;96413.56;;;6.25;100.00
10474;BME280;5284;50.446;7.904;2024-02-23T10:31:56;96413.03;;;6.21;100.00
10474;BME280;5284;50.446;7.904;2024-02-23T10:37:00;96420.06;;;6.64;100.00
10474;BME280;5284;50.446;7.904;2024-02-23T10:42:09;96423.06;;;6.69;100.00
10474;BME280;5284;50.446;7.904;2024-02-23T10:47:12;96414.00;;;7.29;100.00
10474;BME280;5284;50.446;7.904;2024-02-23T10:52:16;96407.91;;;7.44;100.00
10474;BME280;5284;50.446;7.904;2024-02-23T10:57:21;96412.06;;;7.78;100.00
10474;BME280;5284;50.446;7.904;2024-02-23T11:02:27;96417.00;;;7.42;100.00
10474;BME280;5284;50.446;7.904;2024-02-23T11:07:33;96426.28;;;7.46;100.00
10474;BME280;5284;50.446;7.904;2024-02-23T11:12:38;96416.69;;;7.76;100.00
10474;BME280;5284;50.446;7.904;2024-02-23T11:17:41;96412.72;;;7.64;100.00
10474;BME280;5284;50.446;7.904;2024-02-23T11:22:44;96412.56;;;7.74;100.00
10474;BME280;5284;50.446;7.904;2024-02-23T11:27:50;96421.28;;;7.35;100.00
10474;BME280;5284;50.446;7.904;2024-02-23T11:32:58;96403.09;;;8.03;100.00
10474;BME280;5284;50.446;7.904;2024-02-23T11:38:03;96399.88;;;9.02;96.31
10474;BME280;5284;50.446;7.904;2024-02-23T11:43:10;96398.00;;;9.41;93.37
10474;BME280;5284;50.446;7.904;2024-02-23T11:48:13;96386.88;;;9.07;93.25
10474;BME280;5284;50.446;7.904;2024-02-23T11:53:16;96393.78;;;9.24;93.49
10474;BME280;5284;50.446;7.904;2024-02-23T11:58:24;96396.69;;;9.07;91.90
10474;BME280;5284;50.446;7.904;2024-02-23T12:03:27;96399.47;;;9.13;89.68
10474;BME280;5284;50.446;7.904;2024-02-23T12:08:32;96385.97;;;8.84;90.73
10474;BME280;5284;50.446;7.904;2024-02-23T12:13:41;96392.19;;;8.77;89.70
10474;BME280;5284;50.446;7.904;2024-02-23T12:18:44;96395.63;;;8.39;90.16
10474;BME280;5284;50.446;7.904;2024-02-23T12:23:48;96389.22;;;9.63;85.34
10474;BME280;5284;50.446;7.904;2024-02-23T12:29:00;96385.94;;;9.00;83.26
10474;BME280;5284;50.446;7.904;2024-02-23T12:34:03;96390.03;;;8.72;84.32
10474;BME280;5284;50.446;7.904;2024-02-23T12:39:06;96385.22;;;8.76;80.41
10474;BME280;5284;50.446;7.904;2024-02-23T12:44:11;96396.22;;;9.03;83.24
10474;BME280;5284;50.446;7.904;2024-02-23T12:49:15;96400.22;;;8.99;85.97
10474;BME280;5284;50.446;7.904;2024-02-23T12:54:18;96397.72;;;8.59;80.19
10474;BME280;5284;50.446;7.904;2024-02-23T12:59:24;96399.56;;;8.51;84.09
10474;BME280;5284;50.446;7.904;2024-02-23T13:04:27;96401.13;;;8.21;83.29
10474;BME280;5284;50.446;7.904;2024-02-23T13:09:32;96389.00;;;8.19;85.57
10474;BME280;5284;50.446;7.904;2024-02-23T13:14:36;96387.38;;;8.02;85.37
10474;BME280;5284;50.446;7.904;2024-02-23T13:19:41;96383.88;;;8.17;87.01
10474;BME280;5284;50.446;7.904;2024-02-23T13:24:54;96384.53;;;8.19;83.92
10474;BME280;5284;50.446;7.904;2024-02-23T13:29:58;96383.03;;;7.93;84.53
10474;BME280;5284;50.446;7.904;2024-02-23T13:35:01;96383.53;;;7.80;87.31
10474;BME280;5284;50.446;7.904;2024-02-23T13:40:08;96381.69;;;7.97;89.40
10474;BME280;5284;50.446;7.904;2024-02-23T13:45:12;96380.88;;;7.72;88.54
10474;BME280;5284;50.446;7.904;2024-02-23T13:50:17;96366.63;;;7.81;91.69
10474;BME280;5284;50.446;7.904;2024-02-23T13:55:20;96371.13;;;7.81;90.52
10474;BME280;5284;50.446;7.904;2024-02-23T14:00:25;96383.72;;;7.79;88.87
10474;BME280;5284;50.446;7.904;2024-02-23T14:05:28;96390.00;;;7.54;87.93
10474;BME280;5284;50.446;7.904;2024-02-23T14:10:32;96405.59;;;7.57;92.19
10474;BME280;5284;50.446;7.904;2024-02-23T14:15:36;96400.44;;;7.47;100.00
10474;BME280;5284;50.446;7.904;2024-02-23T14:20:39;96397.25;;;7.28;100.00
10474;BME280;5284;50.446;7.904;2024-02-23T14:25:43;96409.88;;;7.34;100.00
10474;BME280;5284;50.446;7.904;2024-02-23T14:30:47;96404.25;;;7.37;100.00
10474;BME280;5284;50.446;7.904;2024-02-23T14:35:51;96416.91;;;7.10;100.00
10474;BME280;5284;50.446;7.904;2024-02-23T14:40:55;96418.06;;;6.99;100.00
10474;BME280;5284;50.446;7.904;2024-02-23T14:45:59;96417.88;;;6.93;100.00
10474;BME280;5284;50.446;7.904;2024-02-23T14:51:03;96415.41;;;6.99;100.00
10474;BME280;5284;50.446;7.904;2024-02-23T14:56:06;96411.69;;;7.34;100.00
10474;BME280;5284;50.446;7.904;2024-02-23T15:01:11;96390.84;;;7.54;100.00
10474;BME280;5284;50.446;7.904;2024-02-23T15:06:14;96381.00;;;7.31;100.00
10474;BME280;5284;50.446;7.904;2024-02-23T15:11:19;96384.38;;;7.57;100.00
10474;BME280;5284;50.446;7.904;2024-02-23T15:16:25;96384.22;;;7.58;100.00
10474;BME280;5284;50.446;7.904;2024-02-23T15:21:28;96384.72;;;7.78;100.00
10474;BME280;5284;50.446;7.904;2024-02-23T15:26:31;96369.63;;;7.70;100.00
10474;BME280;5284;50.446;7.904;2024-02-23T15:31:36;96370.94;;;7.66;100.00
10474;BME280;5284;50.446;7.904;2024-02-23T15:36:42;96369.09;;;8.07;100.00
10474;BME280;5284;50.446;7.904;2024-02-23T15:41:44;96361.28;;;8.05;100.00
10474;BME280;5284;50.446;7.904;2024-02-23T15:46:49;96370.59;;;7.93;100.00
10474;BME280;5284;50.446;7.904;2024-02-23T15:51:54;96363.13;;;7.97;100.00
10474;BME280;5284;50.446;7.904;2024-02-23T15:57:03;96370.28;;;7.56;100.00
10474;BME280;5284;50.446;7.904;2024-02-23T16:02:09;96374.44;;;7.51;100.00
10474;BME280;5284;50.446;7.904;2024-02-23T16:07:12;96375.22;;;7.36;100.00
10474;BME280;5284;50.446;7.904;2024-02-23T16:12:16;96374.25;;;7.37;100.00
10474;BME280;5284;50.446;7.904;2024-02-23T16:17:21;96383.53;;;7.41;100.00
10474;BME280;5284;50.446;7.904;2024-02-23T16:22:24;96371.59;;;7.68;100.00
10474;BME280;5284;50.446;7.904;2024-02-23T16:27:27;96365.94;;;7.32;100.00
10474;BME280;5284;50.446;7.904;2024-02-23T16:32:34;96366.44;;;7.27;100.00
10474;BME280;5284;50.446;7.904;2024-02-23T16:37:37;96363.28;;;7.16;100.00
10474;BME280;5284;50.446;7.904;2024-02-23T16:42:40;96369.34;;;6.92;100.00
10474;BME280;5284;50.446;7.904;2024-02-23T16:47:47;96368.13;;;6.79;100.00
10474;BME280;5284;50.446;7.904;2024-02-23T16:52:52;96373.72;;;6.60;100.00
10474;BME280;5284;50.446;7.904;2024-02-23T16:57:55;96372.63;;;6.45;100.00
10474;BME280;5284;50.446;7.904;2024-02-23T17:02:59;96380.81;;;6.26;100.00
10474;BME280;5284;50.446;7.904;2024-02-23T17:08:03;96381.28;;;6.21;100.00
10474;BME280;5284;50.446;7.904;2024-02-23T17:13:06;96380.94;;;6.16;100.00
10474;BME280;5284;50.446;7.904;2024-02-23T17:18:12;96390.03;;;6.14;100.00
10474;BME280;5284;50.446;7.904;2024-02-23T17:23:18;96398.00;;;6.22;100.00
10474;BME280;5284;50.446;7.904;2024-02-23T17:28:21;96399.44;;;6.16;100.00
10474;BME280;5284;50.446;7.904;2024-02-23T17:33:27;96411.47;;;6.11;100.00
10474;BME280;5284;50.446;7.904;2024-02-23T17:38:30;96398.19;;;6.03;100.00
10474;BME280;5284;50.446;7.904;2024-02-23T17:43:33;96410.25;;;5.98;100.00
10474;BME280;5284;50.446;7.904;2024-02-23T17:48:39;96409.34;;;5.89;100.00
10474;BME280;5284;50.446;7.904;2024-02-23T17:53:42;96402.72;;;5.85;100.00
10474;BME280;5284;50.446;7.904;2024-02-23T17:58:45;96404.44;;;5.77;100.00
10474;BME280;5284;50.446;7.904;2024-02-23T18:03:50;96408.63;;;5.79;100.00
10474;BME280;5284;50.446;7.904;2024-02-23T18:08:53;96408.72;;;5.78;100.00
10474;BME280;5284;50.446;7.904;2024-02-23T18:13:56;96418.78;;;5.74;100.00
10474;BME280;5284;50.446;7.904;2024-02-23T18:19:01;96419.56;;;5.67;100.00
10474;BME280;5284;50.446;7.904;2024-02-23T18:24:06;96428.06;;;5.61;100.00
10474;BME280;5284;50.446;7.904;2024-02-23T18:29:09;96442.56;;;5.57;100.00
10474;BME280;5284;50.446;7.904;2024-02-23T18:34:17;96438.88;;;5.50;100.00
10474;BME280;5284;50.446;7.904;2024-02-23T18:39:19;96436.41;;;5.48;100.00
10474;BME280;5284;50.446;7.904;2024-02-23T18:44:22;96439.72;;;5.50;100.00
10474;BME280;5284;50.446;7.904;2024-02-23T18:49:27;96437.22;;;5.49;100.00
10474;BME280;5284;50.446;7.904;2024-02-23T18:54:36;96435.72;;;5.46;100.00
10474;BME280;5284;50.446;7.904;2024-02-23T18:59:39;96438.66;;;5.43;100.00
10474;BME280;5284;50.446;7.904;2024-02-23T19:04:44;96435.81;;;5.37;100.00
10474;BME280;5284;50.446;7.904;2024-02-23T19:09:49;96434.13;;;5.36;100.00
10474;BME280;5284;50.446;7.904;2024-02-23T19:14:52;96428.63;;;5.29;100.00
10474;BME280;5284;50.446;7.904;2024-02-23T19:19:56;96422.66;;;5.27;100.00
10474;BME280;5284;50.446;7.904;2024-02-23T19:24:59;96418.47;;;5.25;100.00
10474;BME280;5284;50.446;7.904;2024-02-23T19:30:03;96423.94;;;5.23;100.00
10474;BME280;5284;50.446;7.904;2024-02-23T19:35:11;96422.72;;;5.18;100.00
10474;BME280;5284;50.446;7.904;2024-02-23T19:40:15;96428.59;;;5.12;100.00
10474;BME280;5284;50.446;7.904;2024-02-23T19:45:23;96433.94;;;5.02;100.00
10474;BME280;5284;50.446;7.904;2024-02-23T19:50:28;96435.50;;;4.95;100.00
10474;BME280;5284;50.446;7.904;2024-02-23T19:55:31;96442.31;;;4.98;100.00
10474;BME280;5284;50.446;7.904;2024-02-23T20:00:34;96436.88;;;4.99;100.00
10474;BME280;5284;50.446;7.904;2024-02-23T20:05:39;96450.47;;;5.04;100.00
10474;BME280;5284;50.446;7.904;2024-02-23T20:10:42;96454.38;;;5.00;100.00
10474;BME280;5284;50.446;7.904;2024-02-23T20:15:45;96447.13;;;5.02;100.00
10474;BME280;5284;50.446;7.904;2024-02-23T20:20:51;96455.59;;;5.06;100.00
10474;BME280;5284;50.446;7.904;2024-02-23T20:25:54;96457.81;;;5.10;100.00
10474;BME280;5284;50.446;7.904;2024-02-23T20:30:57;96448.44;;;5.16;100.00
10474;BME280;5284;50.446;7.904;2024-02-23T20:36:06;96449.28;;;5.16;100.00
10474;BME280;5284;50.446;7.904;2024-02-23T20:41:09;96436.75;;;5.18;100.00
10474;BME280;5284;50.446;7.904;2024-02-23T20:46:12;96443.84;;;5.18;100.00
10474;BME280;5284;50.446;7.904;2024-02-23T20:51:17;96442.72;;;5.20;100.00
10474;BME280;5284;50.446;7.904;2024-02-23T20:56:20;96444.53;;;5.20;100.00
10474;BME280;5284;50.446;7.904;2024-02-23T21:01:23;96445.66;;;5.17;100.00
10474;BME280;5284;50.446;7.904;2024-02-23T21:06:28;96444.00;;;5.16;100.00
10474;BME280;5284;50.446;7.904;2024-02-23T21:11:31;96455.31;;;5.09;100.00
10474;BME280;5284;50.446;7.904;2024-02-23T21:16:34;96451.44;;;5.03;100.00
10474;BME280;5284;50.446;7.904;2024-02-23T21:21:41;96451.59;;;5.02;100.00
10474;BME280;5284;50.446;7.904;2024-02-23T21:26:44;96455.97;;;4.93;100.00
10474;BME280;5284;50.446;7.904;2024-02-23T21:31:48;96451.31;;;4.78;100.00
10474;BME280;5284;50.446;7.904;2024-02-23T21:36:52;96447.31;;;4.74;100.00
10474;BME280;5284;50.446;7.904;2024-02-23T21:41:58;96441.38;;;4.62;100.00
10474;BME280;5284;50.446;7.904;2024-02-23T21:47:02;96436.13;;;4.53;100.00
10474;BME280;5284;50.446;7.904;2024-02-23T21:52:06;96433.41;;;4.45;100.00
10474;BME280;5284;50.446;7.904;2024-02-23T21:57:10;96432.41;;;4.46;100.00
10474;BME280;5284;50.446;7.904;2024-02-23T22:02:12;96437.19;;;4.43;100.00
10474;BME280;5284;50.446;7.904;2024-02-23T22:07:17;96443.28;;;4.43;100.00
10474;BME280;5284;50.446;7.904;2024-02-23T22:12:20;96432.84;;;4.42;100.00
10474;BME280;5284;50.446;7.904;2024-02-23T22:17:23;96440.34;;;4.46;100.00
10474;BME280;5284;50.446;7.904;2024-02-23T22:22:28;96452.56;;;4.47;100.00
10474;BME280;5284;50.446;7.904;2024-02-23T22:27:31;96464.63;;;4.49;100.00
10474;BME280;5284;50.446;7.904;2024-02-23T22:32:35;96465.75;;;4.47;100.00
10474;BME280;5284;50.446;7.904;2024-02-23T22:37:40;96464.84;;;4.65;100.00
10474;BME280;5284;50.446;7.904;2024-02-23T22:42:43;96471.63;;;4.77;100.00
10474;BME280;5284;50.446;7.904;2024-02-23T22:47:48;96471.44;;;4.79;100.00
10474;BME280;5284;50.446;7.904;2024-02-23T22:52:52;96481.72;;;4.82;100.00
10474;BME280;5284;50.446;7.904;2024-02-23T22:57:55;96482.84;;;4.79;100.00
10474;BME280;5284;50.446;7.904;2024-02-23T23:02:59;96479.75;;;4.84;100.00
10474;BME280;5284;50.446;7.904;2024-02-23T23:08:04;96475.75;;;4.80;100.00
10474;BME280;5284;50.446;7.904;2024-02-23T23:13:07;96467.16;;;4.78;100.00
10474;BME280;5284;50.446;7.904;2024-02-23T23:18:10;96459.94;;;4.70;100.00
10474;BME280;5284;50.446;7.904;2024-02-23T23:23:16;96463.34;;;4.63;100.00
10474;BME280;5284;50.446;7.904;2024-02-23T23:28:18;96463.63;;;4.60;100.00
10474;BME280;5284;50.446;7.904;2024-02-23T23:33:22;96470.56;;;4.61;100.00
10474;BME280;5284;50.446;7.904;2024-02-23T23:38:28;96476.53;;;4.63;100.00
10474;BME280;5284;50.446;7.904;2024-02-23T23:43:31;96473.22;;;4.61;100.00
10474;BME280;5284;50.446;7.904;2024-02-23T23:48:34;96476.66;;;4.61;100.00
10474;BME280;5284;50.446;7.904;2024-02-23T23:53:40;96474.31;;;4.58;100.00
10474;BME280;5284;50.446;7.904;2024-02-23T23:58:43;96477.38;;;4.54;100.00
